createdAt,value
2022-12-03T00:02:23.127Z,0.80
2022-12-03T00:04:50.641Z,1.50
2022-12-03T00:07:18.123Z,0.30
2022-12-03T00:09:45.131Z,1.13
2022-12-03T00:12:12.200Z,0.60
2022-12-03T00:14:44.372Z,0.63
2022-12-03T00:17:12.007Z,0.20
2022-12-03T00:19:39.121Z,0.60
2022-12-03T00:22:06.185Z,0.10
2022-12-03T00:24:33.320Z,0.20
2022-12-03T00:27:00.441Z,1.25
2022-12-03T00:29:27.521Z,0.75
2022-12-03T00:31:54.835Z,1.10
2022-12-03T00:34:22.376Z,0.50
2022-12-03T00:36:49.428Z,0.70
2022-12-03T00:39:16.537Z,0.10
2022-12-03T00:41:43.625Z,0.75
2022-12-03T00:44:11.866Z,0.73
2022-12-03T00:46:39.027Z,0.50
2022-12-03T00:49:06.220Z,0.20
2022-12-03T00:51:33.324Z,0.70
2022-12-03T00:54:00.367Z,0.43
2022-12-03T00:56:27.479Z,0.57
2022-12-03T00:58:54.606Z,0.30
2022-12-03T01:01:21.785Z,0.10
2022-12-03T01:03:48.987Z,0.20
2022-12-03T01:06:16.072Z,0.60
2022-12-03T01:08:43.148Z,0.30
2022-12-03T01:11:30.145Z,0.60
2022-12-03T01:13:57.208Z,0.73
2022-12-03T01:16:23.983Z,0.17
2022-12-03T01:18:52.745Z,0.28
2022-12-03T01:21:20.020Z,0.40
2022-12-03T01:23:47.077Z,0.43
2022-12-03T01:26:15.226Z,0.40
2022-12-03T01:28:42.366Z,1.30
2022-12-03T01:31:30.902Z,0.25
2022-12-03T01:33:58.036Z,0.13
2022-12-03T01:36:25.059Z,1.20
2022-12-03T01:38:52.148Z,0.30
2022-12-03T01:41:19.774Z,1.60
2022-12-03T01:43:47.299Z,0.32
2022-12-03T01:46:17.069Z,0.60
2022-12-03T01:48:44.400Z,0.45
2022-12-03T01:51:11.586Z,0.30
2022-12-03T01:53:38.655Z,0.80
2022-12-03T01:56:05.815Z,0.80
2022-12-03T01:58:32.916Z,0.40
2022-12-03T02:01:02.351Z,0.43
2022-12-03T02:03:29.467Z,0.82
2022-12-03T02:05:56.992Z,0.50
2022-12-03T02:08:28.427Z,0.85
2022-12-03T02:10:55.622Z,11.90
2022-12-03T02:13:22.683Z,11.20
2022-12-03T02:15:49.835Z,10.55
2022-12-03T02:18:16.910Z,13.40
2022-12-03T02:20:47.730Z,12.50
2022-12-03T02:23:17.559Z,12.57
2022-12-03T02:25:44.640Z,13.70
2022-12-03T02:28:11.726Z,13.50
2022-12-03T02:30:38.808Z,13.90
2022-12-03T02:33:05.971Z,13.10
2022-12-03T02:35:34.072Z,17.17
2022-12-03T02:38:12.092Z,13.77
2022-12-03T02:40:39.267Z,12.17
2022-12-03T02:43:06.841Z,15.23
2022-12-03T02:45:36.626Z,15.82
2022-12-03T02:48:07.527Z,15.65
2022-12-03T02:50:36.188Z,15.50
2022-12-03T02:53:05.866Z,14.25
2022-12-03T02:55:37.096Z,13.60
2022-12-03T02:58:05.498Z,13.63
2022-12-03T03:00:32.647Z,12.80
2022-12-03T03:02:59.958Z,10.98
2022-12-03T03:05:27.106Z,9.52
2022-12-03T03:07:54.317Z,10.05
2022-12-03T03:10:23.404Z,9.75
2022-12-03T03:12:50.778Z,14.43
2022-12-03T03:15:17.934Z,17.00
2022-12-03T03:17:45.195Z,16.77
2022-12-03T03:20:12.567Z,16.10
2022-12-03T03:22:40.700Z,15.48
2022-12-03T03:25:09.621Z,15.30
2022-12-03T03:27:36.758Z,16.42
2022-12-03T03:30:04.296Z,13.30
2022-12-03T03:32:31.584Z,13.48
2022-12-03T03:34:59.226Z,13.68
2022-12-03T03:37:26.529Z,11.65
2022-12-03T03:39:53.612Z,15.55
2022-12-03T03:42:20.905Z,17.20
2022-12-03T03:44:48.181Z,14.00
2022-12-03T03:47:15.478Z,15.55
2022-12-03T03:49:42.957Z,16.90
2022-12-03T03:52:11.568Z,15.30
2022-12-03T03:54:39.653Z,17.70
2022-12-03T03:57:06.698Z,16.73
2022-12-03T03:59:33.762Z,15.82
2022-12-03T04:02:00.825Z,14.27
2022-12-03T04:04:28.558Z,14.15
2022-12-03T04:06:55.632Z,12.98
2022-12-03T04:09:22.705Z,12.82
2022-12-03T04:12:09.637Z,11.45
2022-12-03T04:14:36.714Z,11.43
2022-12-03T04:17:03.841Z,14.43
2022-12-03T04:19:30.949Z,12.93
2022-12-03T04:22:17.897Z,12.82
2022-12-03T04:24:45.012Z,12.85
2022-12-03T04:27:31.953Z,15.77
2022-12-03T04:29:59.042Z,18.05
2022-12-03T04:32:45.965Z,15.00
2022-12-03T04:35:33.009Z,15.18
2022-12-03T04:38:01.420Z,17.50
2022-12-03T04:40:48.401Z,15.93
2022-12-03T04:43:15.472Z,16.42
2022-12-03T04:45:42.572Z,14.38
2022-12-03T04:48:09.664Z,12.60
2022-12-03T04:50:36.758Z,12.38
2022-12-03T04:53:03.844Z,13.63
2022-12-03T04:55:30.929Z,13.00
2022-12-03T04:57:58.017Z,12.23
2022-12-03T05:00:25.080Z,13.57
2022-12-03T05:02:52.280Z,12.03
2022-12-03T05:05:19.518Z,12.10
2022-12-03T05:07:46.639Z,15.20
2022-12-03T05:10:14.156Z,15.68
2022-12-03T05:12:41.211Z,18.73
2022-12-03T05:15:08.391Z,18.13
2022-12-03T05:17:35.517Z,15.40
2022-12-03T05:20:22.497Z,16.00
2022-12-03T05:22:49.553Z,14.70
2022-12-03T05:25:16.713Z,13.07
2022-12-03T05:27:44.312Z,13.00
2022-12-03T05:30:11.593Z,12.30
2022-12-03T05:32:38.740Z,13.30
2022-12-03T05:35:06.049Z,16.67
2022-12-03T05:37:33.120Z,15.65
2022-12-03T05:40:00.246Z,15.68
2022-12-03T05:42:54.767Z,13.77
2022-12-03T05:45:22.672Z,16.90
2022-12-03T05:47:49.750Z,18.05
2022-12-03T05:50:16.968Z,14.52
2022-12-03T05:52:44.044Z,14.18
2022-12-03T05:55:11.828Z,15.35
2022-12-03T05:57:39.059Z,13.57
2022-12-03T06:00:07.264Z,14.73
2022-12-03T06:02:34.468Z,16.17
2022-12-03T06:05:01.645Z,17.00
2022-12-03T06:07:28.853Z,13.50
2022-12-03T06:09:55.925Z,15.00
2022-12-03T06:12:23.096Z,16.58
2022-12-03T06:14:50.252Z,16.75
2022-12-03T06:17:17.372Z,15.05
2022-12-03T06:19:44.376Z,18.05
2022-12-03T06:22:11.472Z,16.85
2022-12-03T06:24:38.511Z,16.77
2022-12-03T06:27:05.983Z,16.45
2022-12-03T06:29:33.040Z,15.93
2022-12-03T06:32:00.096Z,16.85
2022-12-03T06:34:27.192Z,17.70
2022-12-03T06:36:54.284Z,17.40
2022-12-03T06:39:21.411Z,19.88
2022-12-03T06:41:48.472Z,19.92
2022-12-03T06:44:15.622Z,19.30
2022-12-03T06:46:42.835Z,20.65
2022-12-03T06:49:10.030Z,18.63
2022-12-03T06:51:37.172Z,20.23
2022-12-03T06:54:04.812Z,19.85
2022-12-03T06:56:36.849Z,18.70
2022-12-03T06:59:06.316Z,19.02
2022-12-03T07:01:33.107Z,17.63
2022-12-03T07:03:59.763Z,17.63
2022-12-03T07:06:26.856Z,17.23
2022-12-03T07:08:53.912Z,16.08
2022-12-03T07:11:40.902Z,16.00
2022-12-03T07:14:08.695Z,16.80
2022-12-03T07:16:36.419Z,14.25
2022-12-03T07:19:04.425Z,16.60
2022-12-03T07:21:31.481Z,11.85
2022-12-03T07:23:58.728Z,14.73
2022-12-03T07:26:25.881Z,12.15
2022-12-03T07:28:52.968Z,12.00
2022-12-03T07:31:20.271Z,11.07
2022-12-03T07:33:47.343Z,19.02
2022-12-03T07:36:14.472Z,12.93
2022-12-03T07:38:41.507Z,20.73
2022-12-03T07:41:08.560Z,14.32
2022-12-03T07:43:35.591Z,13.73
2022-12-03T07:46:02.673Z,12.98
2022-12-03T07:48:29.756Z,16.10
2022-12-03T07:50:56.864Z,12.83
2022-12-03T07:53:23.912Z,12.43
2022-12-03T07:55:50.985Z,20.60
2022-12-03T07:58:18.050Z,16.55
2022-12-03T08:00:45.141Z,14.63
2022-12-03T08:03:12.195Z,17.85
2022-12-03T08:05:39.273Z,14.50
2022-12-03T08:08:06.534Z,18.92
2022-12-03T08:10:33.637Z,13.65
2022-12-03T08:13:00.994Z,13.27
2022-12-03T08:15:35.223Z,16.07
2022-12-03T08:18:12.336Z,15.30
2022-12-03T08:20:40.611Z,22.70
2022-12-03T08:23:10.683Z,15.77
2022-12-03T08:25:37.724Z,16.23
2022-12-03T08:28:21.650Z,16.25
2022-12-03T08:31:04.165Z,20.92
2022-12-03T08:33:35.267Z,21.00
2022-12-03T08:36:06.675Z,21.33
2022-12-03T08:38:34.185Z,21.25
2022-12-03T08:41:01.226Z,20.52
2022-12-03T08:43:29.150Z,19.88
2022-12-03T08:45:57.118Z,19.80
2022-12-03T08:48:28.825Z,20.67
2022-12-03T08:50:57.714Z,20.87
2022-12-03T08:53:32.579Z,20.48
2022-12-03T08:56:01.963Z,21.35
2022-12-03T08:58:34.366Z,22.17
2022-12-03T09:01:21.551Z,20.73
2022-12-03T09:03:54.453Z,22.33
2022-12-03T09:06:22.362Z,20.35
2022-12-03T09:08:49.449Z,21.88
2022-12-03T09:11:16.494Z,20.70
2022-12-03T09:13:43.614Z,17.90
2022-12-03T09:16:10.669Z,17.25
2022-12-03T09:18:37.798Z,20.27
2022-12-03T09:21:04.973Z,20.58
2022-12-03T09:23:32.026Z,17.95
2022-12-03T09:25:59.115Z,18.20
2022-12-03T09:28:26.177Z,21.88
2022-12-03T09:30:53.262Z,17.70
2022-12-03T09:33:20.395Z,23.27
2022-12-03T09:35:47.551Z,21.17
2022-12-03T09:38:14.616Z,18.20
2022-12-03T09:40:41.754Z,17.77
2022-12-03T09:43:09.058Z,18.00
2022-12-03T09:45:36.173Z,18.27
2022-12-03T09:48:04.036Z,24.00
2022-12-03T09:50:31.402Z,19.90
2022-12-03T09:53:00.045Z,19.47
2022-12-03T09:55:28.191Z,18.40
2022-12-03T09:57:55.713Z,19.13
2022-12-03T10:00:27.728Z,15.27
2022-12-03T10:02:58.061Z,19.85
2022-12-03T10:05:25.618Z,17.27
2022-12-03T10:07:53.311Z,22.85
2022-12-03T10:10:21.817Z,21.20
2022-12-03T10:12:49.258Z,15.68
2022-12-03T10:15:17.669Z,17.42
2022-12-03T10:17:46.082Z,17.58
2022-12-03T10:20:13.990Z,17.98
2022-12-03T10:22:41.100Z,19.90
2022-12-03T10:25:13.702Z,19.88
2022-12-03T10:27:41.181Z,20.35
2022-12-03T10:30:15.994Z,19.70
2022-12-03T10:32:44.211Z,16.55
2022-12-03T10:35:12.918Z,17.95
2022-12-03T10:37:59.966Z,13.57
2022-12-03T10:40:28.434Z,18.70
2022-12-03T10:43:13.393Z,16.90
2022-12-03T10:45:40.648Z,18.87
2022-12-03T10:48:12.177Z,16.83
2022-12-03T10:50:46.473Z,15.50
2022-12-03T10:53:13.589Z,15.98
2022-12-03T10:55:41.845Z,16.58
2022-12-03T10:58:17.528Z,17.30
2022-12-03T11:00:44.614Z,15.90
2022-12-03T11:03:20.116Z,17.65
2022-12-03T11:05:47.397Z,16.63
2022-12-03T11:08:16.580Z,15.35
2022-12-03T11:10:43.717Z,16.60
2022-12-03T11:13:30.793Z,16.48
2022-12-03T11:15:59.239Z,15.95
2022-12-03T11:18:46.233Z,15.98
2022-12-03T11:21:14.103Z,14.67
2022-12-03T11:23:48.625Z,16.35
2022-12-03T11:26:19.287Z,15.85
2022-12-03T11:28:46.855Z,16.42
2022-12-03T11:31:33.905Z,17.43
2022-12-03T11:34:20.997Z,16.13
2022-12-03T11:37:08.029Z,16.60
2022-12-03T11:39:50.937Z,17.98
2022-12-03T11:42:25.560Z,17.70
2022-12-03T11:45:08.482Z,15.55
2022-12-03T11:47:44.301Z,17.20
2022-12-03T11:50:21.054Z,16.42
2022-12-03T11:52:49.493Z,17.00
2022-12-03T11:55:18.348Z,16.80
2022-12-03T11:57:45.938Z,16.73
2022-12-03T12:00:22.235Z,18.35
2022-12-03T12:02:49.894Z,15.18
2022-12-03T12:05:20.252Z,16.55
2022-12-03T12:07:48.230Z,16.05
2022-12-03T12:10:35.321Z,13.95
2022-12-03T12:13:02.446Z,13.60
2022-12-03T12:15:45.096Z,14.57
2022-12-03T12:18:32.190Z,15.85
2022-12-03T12:21:19.128Z,16.08
2022-12-03T12:23:46.226Z,14.90
2022-12-03T12:26:13.283Z,16.45
2022-12-03T12:28:40.342Z,16.33
2022-12-03T12:31:11.783Z,16.17
2022-12-03T12:33:38.982Z,16.40
2022-12-03T12:36:09.758Z,16.58
2022-12-03T12:38:36.901Z,17.60
2022-12-03T12:41:08.078Z,16.10
2022-12-03T12:43:36.020Z,16.70
2022-12-03T12:46:39.097Z,17.40
2022-12-03T12:48:59.864Z,16.08
2022-12-03T12:51:27.221Z,16.13
2022-12-03T12:53:54.490Z,15.80
2022-12-03T12:56:26.415Z,15.15
2022-12-03T12:58:53.982Z,17.27
2022-12-03T13:01:22.413Z,16.52
2022-12-03T13:03:51.353Z,15.65
2022-12-03T13:06:18.985Z,15.93
2022-12-03T13:08:47.818Z,15.30
2022-12-03T13:11:34.825Z,16.67
2022-12-03T13:14:08.303Z,16.88
2022-12-03T13:16:36.507Z,16.90
2022-12-03T13:19:03.687Z,15.97
2022-12-03T13:21:46.031Z,16.48
2022-12-03T13:24:35.635Z,17.73
2022-12-03T13:27:09.651Z,16.17
2022-12-03T13:29:36.732Z,16.70
2022-12-03T13:32:11.436Z,15.57
2022-12-03T13:34:38.528Z,15.23
2022-12-03T13:37:12.922Z,15.60
2022-12-03T13:39:42.195Z,17.58
2022-12-03T13:42:35.422Z,17.60
2022-12-03T13:45:03.314Z,18.58
2022-12-03T13:47:30.402Z,18.30
2022-12-03T13:49:58.879Z,17.47
2022-12-03T13:52:26.450Z,17.27
2022-12-03T13:54:54.787Z,16.20
2022-12-03T13:57:21.899Z,15.17
2022-12-03T13:59:48.977Z,17.93
2022-12-03T14:02:16.198Z,14.47
2022-12-03T14:04:43.030Z,14.52
2022-12-03T14:07:10.142Z,14.13
2022-12-03T14:09:37.253Z,16.98
2022-12-03T14:12:24.321Z,15.50
2022-12-03T14:14:51.459Z,16.52
2022-12-03T14:17:18.899Z,14.32
2022-12-03T14:19:46.104Z,14.20
2022-12-03T14:22:13.257Z,14.52
2022-12-03T14:24:40.427Z,14.05
2022-12-03T14:27:07.542Z,13.50
2022-12-03T14:29:34.515Z,15.27
2022-12-03T14:32:01.316Z,13.93
2022-12-03T14:34:28.489Z,15.32
2022-12-03T14:36:55.575Z,14.63
2022-12-03T14:39:22.684Z,15.02
2022-12-03T14:42:09.661Z,15.40
2022-12-03T14:44:36.718Z,13.65
2022-12-03T14:47:04.139Z,13.13
2022-12-03T14:49:31.371Z,13.40
2022-12-03T14:51:58.417Z,13.82
2022-12-03T14:54:25.833Z,13.40
2022-12-03T14:56:52.906Z,12.85
2022-12-03T14:59:24.512Z,13.52
2022-12-03T15:01:54.644Z,13.80
2022-12-03T15:04:21.839Z,14.07
2022-12-03T15:06:48.894Z,13.80
2022-12-03T15:09:15.977Z,14.20
2022-12-03T15:11:46.345Z,15.18
2022-12-03T15:14:13.818Z,18.52
2022-12-03T15:16:41.001Z,14.65
2022-12-03T15:19:08.127Z,13.98
2022-12-03T15:21:35.230Z,12.57
2022-12-03T15:24:02.823Z,12.35
2022-12-03T15:26:30.246Z,12.37
2022-12-03T15:28:57.302Z,13.50
2022-12-03T15:31:24.457Z,12.77
2022-12-03T15:33:51.643Z,13.05
2022-12-03T15:36:18.749Z,11.88
2022-12-03T15:38:45.629Z,12.38
2022-12-03T15:41:21.378Z,12.18
2022-12-03T15:43:49.131Z,11.82
2022-12-03T15:46:16.396Z,12.82
2022-12-03T15:48:43.617Z,12.57
2022-12-03T15:51:11.026Z,14.23
2022-12-03T15:53:38.120Z,13.65
2022-12-03T15:56:05.288Z,11.45
2022-12-03T15:58:32.796Z,12.17
2022-12-03T16:01:00.251Z,11.90
2022-12-03T16:03:27.422Z,12.18
2022-12-03T16:05:54.557Z,13.05
2022-12-03T16:08:21.793Z,12.40
2022-12-03T16:10:48.911Z,12.10
2022-12-03T16:13:16.009Z,12.80
2022-12-03T16:15:43.361Z,13.13
2022-12-03T16:18:10.421Z,12.27
2022-12-03T16:20:37.506Z,12.93
2022-12-03T16:23:04.617Z,12.73
2022-12-03T16:25:31.684Z,12.63
2022-12-03T16:27:58.804Z,13.67
2022-12-03T16:30:25.933Z,12.40
2022-12-03T16:32:53.074Z,13.47
2022-12-03T16:35:20.147Z,12.10
2022-12-03T16:37:47.243Z,13.13
2022-12-03T16:40:14.325Z,12.37
2022-12-03T16:42:41.458Z,12.47
2022-12-03T16:45:09.871Z,13.27
2022-12-03T16:47:36.913Z,12.88
2022-12-03T16:50:05.461Z,12.13
2022-12-03T16:52:32.504Z,13.25
2022-12-03T16:54:59.581Z,12.68
2022-12-03T16:57:33.155Z,12.50
2022-12-03T17:00:01.161Z,13.65
2022-12-03T17:02:28.353Z,13.35
2022-12-03T17:04:55.600Z,12.33
2022-12-03T17:07:22.730Z,15.47
2022-12-03T17:09:49.910Z,14.73
2022-12-03T17:12:16.933Z,15.02
2022-12-03T17:14:44.025Z,15.10
2022-12-03T17:17:11.109Z,17.60
2022-12-03T17:19:38.197Z,15.70
2022-12-03T17:22:05.250Z,14.53
2022-12-03T17:24:32.344Z,13.48
2022-12-03T17:26:59.372Z,14.50
2022-12-03T17:29:26.456Z,13.52
2022-12-03T17:31:53.181Z,12.88
2022-12-03T17:34:20.256Z,13.50
2022-12-03T17:36:47.278Z,12.93
2022-12-03T17:39:14.233Z,12.57
2022-12-03T17:41:41.281Z,14.18
2022-12-03T17:44:11.350Z,13.73
2022-12-03T17:46:40.319Z,14.27
2022-12-03T17:49:07.512Z,13.35
2022-12-03T17:51:34.553Z,12.25
2022-12-03T17:54:01.692Z,14.15
2022-12-03T17:56:29.497Z,13.65
2022-12-03T17:58:57.087Z,12.65
2022-12-03T18:01:24.188Z,13.20
2022-12-03T18:03:51.305Z,13.10
2022-12-03T18:06:18.476Z,12.97
2022-12-03T18:08:45.516Z,15.00
2022-12-03T18:11:12.641Z,12.37
2022-12-03T18:13:39.727Z,14.00
2022-12-03T18:16:06.930Z,13.95
2022-12-03T18:18:34.092Z,15.23
2022-12-03T18:21:02.193Z,18.27
2022-12-03T18:23:29.236Z,16.77
2022-12-03T18:25:56.645Z,15.27
2022-12-03T18:28:23.863Z,15.18
2022-12-03T18:30:52.882Z,13.70
2022-12-03T18:33:21.501Z,14.45
2022-12-03T18:35:48.605Z,14.30
2022-12-03T18:38:16.564Z,12.82
2022-12-03T18:40:44.419Z,13.05
2022-12-03T18:43:15.495Z,13.45
2022-12-03T18:45:42.684Z,16.02
2022-12-03T18:48:15.799Z,13.65
2022-12-03T18:50:43.289Z,14.65
2022-12-03T18:53:12.655Z,14.18
2022-12-03T18:55:39.931Z,14.00
2022-12-03T18:58:07.163Z,14.80
2022-12-03T19:00:35.705Z,15.88
2022-12-03T19:03:04.543Z,14.55
2022-12-03T19:05:34.284Z,13.77
2022-12-03T19:08:01.793Z,16.60
2022-12-03T19:10:28.912Z,13.45
2022-12-03T19:12:56.039Z,13.93
2022-12-03T19:15:23.932Z,13.30
2022-12-03T19:17:51.184Z,13.65
2022-12-03T19:20:18.280Z,15.10
2022-12-03T19:22:45.337Z,13.30
2022-12-03T19:25:12.428Z,12.25
2022-12-03T19:27:39.597Z,14.27
2022-12-03T19:30:06.922Z,15.48
2022-12-03T19:32:34.878Z,14.57
2022-12-03T19:35:04.938Z,13.25
2022-12-03T19:37:33.629Z,13.93
2022-12-03T19:40:01.041Z,14.23
2022-12-03T19:42:28.128Z,16.48
2022-12-03T19:44:55.251Z,14.77
2022-12-03T19:47:24.554Z,13.57
2022-12-03T19:49:53.839Z,13.68
2022-12-03T19:52:21.204Z,15.27
2022-12-03T19:54:47.940Z,13.80
2022-12-03T19:57:21.552Z,14.15
2022-12-03T19:59:50.276Z,11.77
2022-12-03T20:02:17.559Z,14.23
2022-12-03T20:04:44.703Z,12.05
2022-12-03T20:07:11.755Z,13.15
2022-12-03T20:09:38.906Z,13.80
2022-12-03T20:12:06.127Z,13.27
2022-12-03T20:14:33.179Z,11.48
2022-12-03T20:17:00.307Z,12.70
2022-12-03T20:19:27.687Z,11.93
2022-12-03T20:22:00.712Z,12.63
2022-12-03T20:24:29.582Z,13.52
2022-12-03T20:26:56.744Z,11.45
2022-12-03T20:29:23.766Z,13.35
2022-12-03T20:31:50.954Z,13.15
2022-12-03T20:34:18.141Z,12.48
2022-12-03T20:36:45.462Z,11.20
2022-12-03T20:39:12.598Z,13.38
2022-12-03T20:41:39.713Z,11.63
2022-12-03T20:44:07.822Z,12.43
2022-12-03T20:46:35.250Z,12.30
2022-12-03T20:49:02.380Z,11.50
2022-12-03T20:51:30.815Z,12.10
2022-12-03T20:53:59.353Z,13.38
2022-12-03T20:56:28.526Z,12.32
2022-12-03T20:58:55.623Z,11.95
2022-12-03T21:01:25.095Z,12.57
2022-12-03T21:03:53.216Z,10.43
2022-12-03T21:06:21.350Z,11.10
2022-12-03T21:08:48.761Z,11.32
2022-12-03T21:11:18.939Z,11.27
2022-12-03T21:13:46.457Z,11.55
2022-12-03T21:16:14.732Z,10.90
2022-12-03T21:18:42.144Z,11.07
2022-12-03T21:21:10.978Z,12.40
2022-12-03T21:23:38.262Z,12.37
2022-12-03T21:26:07.658Z,12.07
2022-12-03T21:28:34.754Z,12.00
2022-12-03T21:31:03.992Z,11.27
2022-12-03T21:33:31.466Z,12.15
2022-12-03T21:35:59.297Z,12.17
2022-12-03T21:38:26.831Z,10.57
2022-12-03T21:40:54.378Z,11.60
2022-12-03T21:43:21.785Z,10.20
2022-12-03T21:45:49.084Z,11.48
2022-12-03T21:48:16.538Z,12.87
2022-12-03T21:50:43.927Z,11.30
2022-12-03T21:53:11.031Z,10.90
2022-12-03T21:55:39.620Z,9.80
2022-12-03T21:58:07.182Z,10.87
2022-12-03T22:00:34.218Z,11.50
2022-12-03T22:03:01.142Z,10.65
2022-12-03T22:05:28.314Z,11.57
2022-12-03T22:07:55.451Z,11.15
2022-12-03T22:10:22.541Z,10.32
2022-12-03T22:12:49.587Z,11.73
2022-12-03T22:15:19.213Z,10.50
2022-12-03T22:17:46.903Z,10.80
2022-12-03T22:20:14.143Z,11.60
2022-12-03T22:22:41.327Z,10.48
2022-12-03T22:25:08.570Z,10.18
2022-12-03T22:27:35.645Z,10.68
2022-12-03T22:30:03.170Z,11.48
2022-12-03T22:32:30.317Z,11.95
2022-12-03T22:34:57.374Z,11.18
2022-12-03T22:37:24.417Z,11.82
2022-12-03T22:39:51.490Z,12.00
2022-12-03T22:42:18.599Z,11.50
2022-12-03T22:44:45.195Z,10.40
2022-12-03T22:47:12.265Z,11.23
2022-12-03T22:49:39.346Z,12.40
2022-12-03T22:52:06.047Z,10.73
2022-12-03T22:54:32.672Z,11.35
2022-12-03T22:56:59.893Z,10.75
2022-12-03T22:59:26.556Z,10.63
2022-12-03T23:01:53.633Z,10.75
2022-12-03T23:04:20.712Z,11.23
2022-12-03T23:06:47.425Z,11.23
2022-12-03T23:09:14.435Z,10.53
2022-12-03T23:11:44.141Z,10.90
2022-12-03T23:14:11.241Z,10.95
2022-12-03T23:16:38.328Z,10.27
2022-12-03T23:19:05.696Z,10.43
2022-12-03T23:21:33.967Z,9.95
2022-12-03T23:24:01.702Z,9.73
2022-12-03T23:26:29.217Z,10.65
2022-12-03T23:28:56.295Z,10.05
2022-12-03T23:31:25.223Z,10.02
2022-12-03T23:33:52.810Z,9.70
2022-12-03T23:36:20.204Z,10.13
2022-12-03T23:38:47.114Z,10.27
2022-12-03T23:41:15.364Z,9.63
2022-12-03T23:43:42.587Z,9.40
2022-12-03T23:46:11.260Z,10.00
2022-12-03T23:48:38.569Z,10.50
2022-12-03T23:51:07.842Z,10.23
2022-12-03T23:53:36.458Z,9.70
2022-12-03T23:56:05.812Z,9.07
2022-12-03T23:58:32.779Z,9.70
